Terminal Aerodrome Forecast
Issued by NWS Albany, NY

Home | Current Version | Previous Version | Text Only | Print | Product List | Glossary On
Versions: 1 2 3 4 5 6 7 8 9 10 11 12 13 14 15 16 17 18 19 20 21 22 23 24 25 26 27
000
FTUS41 KALY 180500 CCA
TAFGFL
TAF COR
KGFL 180540Z 1806/1906 00000KT P6SM BKN080
      TEMPO 1806/1808 2SM BR BKN005
     FM180800 VRB03KT 6SM BR FEW002 BKN080
     FM181400 33007KT P6SM SCT050 BKN080
     FM182000 03011G17KT P6SM BKN045
     FM190200 02007KT P6SM BKN040=

USA.gov is the U.S. government's official web portal to all federal, state and local government web resources and services.